createdAt,value
2018-03-29T00:00:58.568Z,1008.17
2018-03-29T00:01:58.579Z,1008.18
2018-03-29T00:02:58.602Z,1008.15
2018-03-29T00:03:58.616Z,1008.14
2018-03-29T00:04:58.691Z,1008.12
2018-03-29T00:05:58.653Z,1008.16
2018-03-29T00:06:58.672Z,1008.10
2018-03-29T00:07:58.690Z,1008.06
2018-03-29T00:08:58.709Z,1008.04
2018-03-29T00:09:58.727Z,1008.01
2018-03-29T00:10:58.744Z,1008.00
2018-03-29T00:11:58.765Z,1008.04
2018-03-29T00:12:58.829Z,1008.02
2018-03-29T00:13:58.798Z,1008.01
2018-03-29T00:14:58.814Z,1008.05
2018-03-29T00:15:58.834Z,1008.05
2018-03-29T00:16:58.900Z,1008.06
2018-03-29T00:17:58.871Z,1008.07
2018-03-29T00:18:58.888Z,1008.09
2018-03-29T00:19:58.902Z,1008.05
2018-03-29T00:20:58.921Z,1008.07
2018-03-29T00:21:58.943Z,1008.05
2018-03-29T00:22:59.014Z,1008.07
2018-03-29T00:23:58.976Z,1008.00
2018-03-29T00:24:58.994Z,1008.03
2018-03-29T00:25:59.013Z,1007.98
2018-03-29T00:26:59.032Z,1007.98
2018-03-29T00:27:59.047Z,1007.99
2018-03-29T00:28:59.117Z,1008.00
2018-03-29T00:29:59.081Z,1007.95
2018-03-29T00:30:59.099Z,1007.96
2018-03-29T00:31:59.128Z,1007.93
2018-03-29T00:32:59.137Z,1007.87
2018-03-29T00:33:59.153Z,1007.95
2018-03-29T00:34:59.170Z,1007.91
2018-03-29T00:35:59.186Z,1007.95
2018-03-29T00:37:59.227Z,1007.90
2018-03-29T00:38:59.253Z,1007.90
2018-03-29T00:39:59.262Z,1007.90
2018-03-29T00:40:59.327Z,1007.88
2018-03-29T00:41:59.302Z,1007.90
2018-03-29T00:42:59.322Z,1007.86
2018-03-29T00:43:59.329Z,1007.90
2018-03-29T00:44:59.345Z,1007.90
2018-03-29T00:45:59.362Z,1007.95
2018-03-29T00:46:59.439Z,1007.95
2018-03-29T00:47:59.402Z,1007.95
2018-03-29T00:48:59.427Z,1007.96
2018-03-29T00:49:59.432Z,1007.91
2018-03-29T00:50:59.463Z,1007.90
2018-03-29T00:51:59.469Z,1007.93
2018-03-29T00:52:59.541Z,1007.93
2018-03-29T00:53:59.505Z,1007.93
2018-03-29T00:54:59.540Z,1007.91
2018-03-29T00:55:59.541Z,1007.92
2018-03-29T00:56:59.561Z,1007.90
2018-03-29T00:57:59.576Z,1007.96
2018-03-29T00:58:59.591Z,1007.92
2018-03-29T00:59:59.610Z,1007.92
2018-03-29T01:00:59.629Z,1007.89
2018-03-29T01:01:59.645Z,1007.91
2018-03-29T01:02:59.661Z,1007.89
2018-03-29T01:03:59.719Z,1007.87
2018-03-29T01:04:59.750Z,1007.85
2018-03-29T01:05:59.718Z,1007.83
2018-03-29T01:06:59.732Z,1007.90
2018-03-29T01:07:59.747Z,1007.85
2018-03-29T01:08:59.765Z,1007.82
2018-03-29T01:09:59.787Z,1007.81
2018-03-29T01:10:59.804Z,1007.84
2018-03-29T01:11:59.832Z,1007.86
2018-03-29T01:12:59.837Z,1007.86
2018-03-29T01:13:59.857Z,1007.87
2018-03-29T01:14:59.882Z,1007.87
2018-03-29T01:15:59.889Z,1007.91
2018-03-29T01:16:59.938Z,1007.93
2018-03-29T01:17:59.924Z,1007.91
2018-03-29T01:18:59.942Z,1007.90
2018-03-29T01:19:59.961Z,1007.89
2018-03-29T01:20:59.985Z,1007.86
2018-03-29T01:22:00.010Z,1007.85
2018-03-29T01:23:00.067Z,1007.86
2018-03-29T01:24:00.031Z,1007.85
2018-03-29T01:25:00.050Z,1007.86
2018-03-29T01:26:00.080Z,1007.83
2018-03-29T01:27:00.096Z,1007.78
2018-03-29T01:28:00.103Z,1007.78
2018-03-29T01:29:00.119Z,1007.82
2018-03-29T01:30:00.167Z,1007.83
2018-03-29T01:31:00.152Z,1007.82
2018-03-29T01:32:00.174Z,1007.79
2018-03-29T01:33:00.197Z,1007.76
2018-03-29T01:34:00.207Z,1007.75
2018-03-29T01:35:00.278Z,1007.73
2018-03-29T01:36:00.268Z,1007.71
2018-03-29T01:37:00.269Z,1007.75
2018-03-29T01:38:00.277Z,1007.75
2018-03-29T01:39:00.296Z,1007.73
2018-03-29T01:40:00.314Z,1007.73
2018-03-29T01:41:00.381Z,1007.69
2018-03-29T01:42:00.376Z,1007.68
2018-03-29T01:43:00.367Z,1007.70
2018-03-29T01:44:00.383Z,1007.68
2018-03-29T01:45:00.402Z,1007.64
2018-03-29T01:46:00.418Z,1007.67
2018-03-29T01:47:00.448Z,1007.66
2018-03-29T01:48:00.453Z,1007.64
2018-03-29T01:49:00.472Z,1007.68
2018-03-29T01:50:00.503Z,1007.67
2018-03-29T01:51:00.505Z,1007.65
2018-03-29T01:52:00.536Z,1007.66
2018-03-29T01:53:00.607Z,1007.67
2018-03-29T01:54:00.559Z,1007.64
2018-03-29T01:55:00.584Z,1007.65
2018-03-29T01:56:00.605Z,1007.67
2018-03-29T01:57:00.614Z,1007.63
2018-03-29T01:58:00.638Z,1007.64
2018-03-29T01:59:00.652Z,1007.61
2018-03-29T02:00:00.668Z,1007.62
2018-03-29T02:01:00.789Z,1007.59
2018-03-29T02:02:00.712Z,1007.58
2018-03-29T02:03:00.726Z,1007.61
2018-03-29T02:04:00.740Z,1007.60
2018-03-29T02:05:00.756Z,1007.59
2018-03-29T02:06:00.771Z,1007.59
2018-03-29T02:07:00.791Z,1007.60
2018-03-29T02:08:00.810Z,1007.57
2018-03-29T02:09:00.833Z,1007.55
2018-03-29T02:10:00.845Z,1007.55
2018-03-29T02:11:00.863Z,1007.54
2018-03-29T02:12:00.888Z,1007.55
2018-03-29T02:13:00.908Z,1007.52
2018-03-29T02:14:00.920Z,1007.52
2018-03-29T02:15:00.932Z,1007.54
2018-03-29T02:16:00.949Z,1007.53
2018-03-29T02:17:00.979Z,1007.53
2018-03-29T02:18:00.984Z,1007.45
2018-03-29T02:19:01.015Z,1007.47
2018-03-29T02:20:01.063Z,1007.46
2018-03-29T02:21:01.042Z,1007.50
2018-03-29T02:22:01.056Z,1007.50
2018-03-29T02:23:01.075Z,1007.46
2018-03-29T02:24:01.099Z,1007.49
2018-03-29T02:25:01.108Z,1007.41
2018-03-29T02:26:01.126Z,1007.39
2018-03-29T02:27:01.155Z,1007.45
2018-03-29T02:28:01.171Z,1007.45
2018-03-29T02:29:01.231Z,1007.45
2018-03-29T02:30:01.203Z,1007.44
2018-03-29T02:31:01.219Z,1007.46
2018-03-29T02:32:01.242Z,1007.44
2018-03-29T02:33:01.278Z,1007.49
2018-03-29T02:34:01.272Z,1007.44
2018-03-29T02:35:01.338Z,1007.47
2018-03-29T02:36:01.312Z,1007.50
2018-03-29T02:37:01.318Z,1007.53
2018-03-29T02:38:01.345Z,1007.52
2018-03-29T02:39:01.358Z,1007.53
2018-03-29T02:40:01.378Z,1007.55
2018-03-29T02:41:01.400Z,1007.54
2018-03-29T02:42:01.409Z,1007.52
2018-03-29T02:43:01.436Z,1007.53
2018-03-29T02:44:01.448Z,1007.52
2018-03-29T02:45:01.463Z,1007.52
2018-03-29T02:46:01.563Z,1007.46
2018-03-29T02:47:01.496Z,1007.49
2018-03-29T02:48:01.526Z,1007.53
2018-03-29T02:49:01.538Z,1007.49
2018-03-29T02:50:01.547Z,1007.50
2018-03-29T02:51:01.577Z,1007.50
2018-03-29T02:52:01.587Z,1007.49
2018-03-29T02:53:01.658Z,1007.49
2018-03-29T02:54:01.626Z,1007.48
2018-03-29T02:55:01.637Z,1007.47
2018-03-29T02:56:01.662Z,1007.48
2018-03-29T02:57:01.667Z,1007.43
2018-03-29T02:58:01.686Z,1007.47
2018-03-29T02:59:01.841Z,1007.46
2018-03-29T03:00:01.725Z,1007.45
2018-03-29T03:01:01.740Z,1007.42
2018-03-29T03:02:01.766Z,1007.49
2018-03-29T03:03:01.778Z,1007.45
2018-03-29T03:04:01.817Z,1007.47
2018-03-29T03:05:01.925Z,1007.48
2018-03-29T03:06:01.836Z,1007.46
2018-03-29T03:07:01.870Z,1007.47
2018-03-29T03:08:01.873Z,1007.50
2018-03-29T03:09:01.889Z,1007.44
2018-03-29T03:10:01.899Z,1007.43
2018-03-29T03:11:01.975Z,1007.42
2018-03-29T03:12:01.941Z,1007.44
2018-03-29T03:13:01.951Z,1007.39
2018-03-29T03:14:01.966Z,1007.38
2018-03-29T03:15:01.988Z,1007.40
2018-03-29T03:16:02.002Z,1007.37
2018-03-29T03:17:02.029Z,1007.36
2018-03-29T03:18:02.066Z,1007.36
2018-03-29T03:19:02.061Z,1007.35
2018-03-29T03:20:02.081Z,1007.36
2018-03-29T03:21:02.096Z,1007.34
2018-03-29T03:22:02.115Z,1007.36
2018-03-29T03:23:02.172Z,1007.34
2018-03-29T03:24:02.188Z,1007.32
2018-03-29T03:25:02.163Z,1007.33
2018-03-29T03:26:02.174Z,1007.32
2018-03-29T03:27:02.201Z,1007.33
2018-03-29T03:28:02.217Z,1007.36
2018-03-29T03:29:02.280Z,1007.31
2018-03-29T03:30:02.253Z,1007.29
2018-03-29T03:31:02.263Z,1007.31
2018-03-29T03:32:02.280Z,1007.28
2018-03-29T03:33:02.305Z,1007.30
2018-03-29T03:34:02.322Z,1007.29
2018-03-29T03:35:02.342Z,1007.30
2018-03-29T03:36:02.378Z,1007.31
2018-03-29T03:37:02.390Z,1007.28
2018-03-29T03:38:02.381Z,1007.33
2018-03-29T03:39:02.401Z,1007.29
2018-03-29T03:40:02.417Z,1007.24
2018-03-29T03:41:02.435Z,1007.25
2018-03-29T03:42:02.450Z,1007.25
2018-03-29T03:43:02.508Z,1007.30
2018-03-29T03:44:02.494Z,1007.27
2018-03-29T03:45:02.502Z,1007.23
2018-03-29T03:46:02.526Z,1007.26
2018-03-29T03:47:02.536Z,1007.25
2018-03-29T03:48:02.561Z,1007.26
2018-03-29T03:49:02.581Z,1007.28
2018-03-29T03:50:02.586Z,1007.25
2018-03-29T03:51:02.616Z,1007.23
2018-03-29T03:52:02.622Z,1007.24
2018-03-29T03:53:02.643Z,1007.27
2018-03-29T03:54:02.665Z,1007.29
2018-03-29T03:55:02.685Z,1007.26
2018-03-29T03:56:02.709Z,1007.28
2018-03-29T03:57:02.705Z,1007.26
2018-03-29T03:58:02.728Z,1007.29
2018-03-29T03:59:02.749Z,1007.25
2018-03-29T04:00:02.762Z,1007.23
2018-03-29T04:01:02.775Z,1007.21
2018-03-29T04:02:02.839Z,1007.22
2018-03-29T04:03:02.815Z,1007.23
2018-03-29T04:04:02.830Z,1007.21
2018-03-29T04:05:02.846Z,1007.18
2018-03-29T04:06:02.870Z,1007.19
2018-03-29T04:07:02.882Z,1007.16
2018-03-29T04:08:02.920Z,1007.15
2018-03-29T04:09:02.923Z,1007.16
2018-03-29T04:10:02.932Z,1007.18
2018-03-29T04:11:02.956Z,1007.16
2018-03-29T04:12:02.964Z,1007.13
2018-03-29T04:13:02.992Z,1007.11
2018-03-29T04:14:03.016Z,1007.12
2018-03-29T04:15:03.017Z,1007.08
2018-03-29T04:16:03.035Z,1007.07
2018-03-29T04:17:03.105Z,1007.12
2018-03-29T04:18:03.068Z,1007.04
2018-03-29T04:19:03.084Z,1007.03
2018-03-29T04:20:03.103Z,1007.01
2018-03-29T04:21:03.132Z,1007.02
2018-03-29T04:22:03.140Z,1007.03
2018-03-29T04:23:03.156Z,1007.01
2018-03-29T04:24:03.186Z,1007.01
2018-03-29T04:25:03.188Z,1006.98
2018-03-29T04:26:03.205Z,1006.97
2018-03-29T04:27:03.221Z,1006.96
2018-03-29T04:28:03.242Z,1006.93
2018-03-29T04:29:03.257Z,1006.93
2018-03-29T04:30:03.274Z,1006.95
2018-03-29T04:31:03.294Z,1006.96
2018-03-29T04:32:03.310Z,1006.94
2018-03-29T04:33:03.384Z,1006.92
2018-03-29T04:34:03.345Z,1006.87
2018-03-29T04:35:03.369Z,1006.86
2018-03-29T04:36:03.387Z,1006.85
2018-03-29T04:37:03.395Z,1006.88
2018-03-29T04:38:03.421Z,1006.84
2018-03-29T04:39:03.444Z,1006.87
2018-03-29T04:40:03.446Z,1006.86
2018-03-29T04:41:03.513Z,1006.85
2018-03-29T04:42:03.482Z,1006.82
2018-03-29T04:43:03.498Z,1006.83
2018-03-29T04:44:03.519Z,1006.84
2018-03-29T04:45:03.542Z,1006.83
2018-03-29T04:46:03.548Z,1006.86
2018-03-29T04:47:03.576Z,1006.81
2018-03-29T04:48:03.596Z,1006.84
2018-03-29T04:49:03.602Z,1006.79
2018-03-29T04:50:03.625Z,1006.84
2018-03-29T04:51:03.645Z,1006.80
2018-03-29T04:52:03.662Z,1006.81
2018-03-29T04:53:03.749Z,1006.79
2018-03-29T04:54:03.685Z,1006.77
2018-03-29T04:55:03.702Z,1006.78
2018-03-29T04:56:03.722Z,1006.76
2018-03-29T04:57:03.737Z,1006.76
2018-03-29T04:58:03.756Z,1006.77
2018-03-29T04:59:03.821Z,1006.77
2018-03-29T05:00:03.799Z,1006.81
2018-03-29T05:01:03.812Z,1006.76
2018-03-29T05:02:03.825Z,1006.80
2018-03-29T05:03:03.839Z,1006.78
2018-03-29T05:04:03.855Z,1006.81
2018-03-29T05:05:03.940Z,1006.76
2018-03-29T05:06:03.897Z,1006.76
2018-03-29T05:07:03.910Z,1006.75
2018-03-29T05:08:03.926Z,1006.73
2018-03-29T05:09:03.946Z,1006.77
2018-03-29T05:10:03.975Z,1006.74
2018-03-29T05:11:03.996Z,1006.69
2018-03-29T05:12:03.990Z,1006.68
2018-03-29T05:13:04.009Z,1006.71
2018-03-29T05:14:04.025Z,1006.69
2018-03-29T05:15:04.044Z,1006.69
2018-03-29T05:16:04.066Z,1006.72
2018-03-29T05:17:04.089Z,1006.71
2018-03-29T05:18:04.092Z,1006.68
2018-03-29T05:19:04.111Z,1006.71
2018-03-29T05:20:04.126Z,1006.67
2018-03-29T05:21:04.146Z,1006.67
2018-03-29T05:22:04.169Z,1006.67
2018-03-29T05:23:04.179Z,1006.69
2018-03-29T05:24:04.257Z,1006.64
2018-03-29T05:25:04.208Z,1006.67
2018-03-29T05:26:04.239Z,1006.61
2018-03-29T05:27:04.251Z,1006.59
2018-03-29T05:28:04.274Z,1006.62
2018-03-29T05:29:04.332Z,1006.58
2018-03-29T05:30:04.332Z,1006.60
2018-03-29T05:31:04.316Z,1006.58
2018-03-29T05:32:04.337Z,1006.57
2018-03-29T05:33:04.349Z,1006.57
2018-03-29T05:34:04.368Z,1006.56
2018-03-29T05:35:04.435Z,1006.61
2018-03-29T05:36:04.400Z,1006.62
2018-03-29T05:37:04.417Z,1006.54
2018-03-29T05:38:04.432Z,1006.55
2018-03-29T05:39:04.450Z,1006.55
2018-03-29T05:40:04.491Z,1006.54
2018-03-29T05:41:04.590Z,1006.55
2018-03-29T05:42:04.503Z,1006.60
2018-03-29T05:43:04.564Z,1006.57
2018-03-29T05:44:04.546Z,1006.59
2018-03-29T05:45:04.564Z,1006.57
2018-03-29T05:46:04.571Z,1006.55
2018-03-29T05:47:04.587Z,1006.60
2018-03-29T05:48:04.602Z,1006.62
2018-03-29T05:49:04.623Z,1006.62
2018-03-29T05:50:04.639Z,1006.61
2018-03-29T05:51:04.656Z,1006.59
2018-03-29T05:52:04.684Z,1006.58
2018-03-29T05:53:04.742Z,1006.59
2018-03-29T05:54:04.710Z,1006.60
2018-03-29T05:55:04.725Z,1006.60
2018-03-29T05:56:04.751Z,1006.61
2018-03-29T05:57:04.762Z,1006.66
2018-03-29T05:58:04.776Z,1006.66
2018-03-29T05:59:04.795Z,1006.66
2018-03-29T06:00:04.815Z,1006.65
2018-03-29T06:01:04.830Z,1006.69
2018-03-29T06:02:04.891Z,1006.67
2018-03-29T06:03:04.888Z,1006.64
2018-03-29T06:04:04.878Z,1006.61
2018-03-29T06:05:04.944Z,1006.63
2018-03-29T06:06:04.909Z,1006.66
2018-03-29T06:07:04.945Z,1006.60
2018-03-29T06:08:04.957Z,1006.63
2018-03-29T06:09:04.965Z,1006.67
2018-03-29T06:10:04.979Z,1006.69
2018-03-29T06:11:05.114Z,1006.66
2018-03-29T06:12:05.025Z,1006.67
2018-03-29T06:13:05.030Z,1006.68
2018-03-29T06:14:05.060Z,1006.67
2018-03-29T06:15:05.085Z,1006.66
2018-03-29T06:16:05.097Z,1006.67
2018-03-29T06:17:05.149Z,1006.65
2018-03-29T06:18:05.117Z,1006.66
2018-03-29T06:19:05.135Z,1006.61
2018-03-29T06:20:05.154Z,1006.66
2018-03-29T06:21:05.191Z,1006.64
2018-03-29T06:22:05.190Z,1006.63
2018-03-29T06:23:05.204Z,1006.66
2018-03-29T06:24:05.227Z,1006.66
2018-03-29T06:25:05.239Z,1006.59
2018-03-29T06:26:05.258Z,1006.63
2018-03-29T06:27:05.277Z,1006.59
2018-03-29T06:28:05.293Z,1006.55
2018-03-29T06:29:05.309Z,1006.56
2018-03-29T06:30:05.328Z,1006.56
2018-03-29T06:31:05.342Z,1006.57
2018-03-29T06:32:05.360Z,1006.53
2018-03-29T06:33:05.465Z,1006.53
2018-03-29T06:34:05.411Z,1006.54
2018-03-29T06:35:05.411Z,1006.53
2018-03-29T06:36:05.430Z,1006.55
2018-03-29T06:37:05.448Z,1006.56
2018-03-29T06:38:05.465Z,1006.55
2018-03-29T06:39:05.491Z,1006.55
2018-03-29T06:40:05.498Z,1006.55
2018-03-29T06:41:05.568Z,1006.58
2018-03-29T06:42:05.534Z,1006.60
2018-03-29T06:43:05.552Z,1006.58
2018-03-29T06:44:05.571Z,1006.57
2018-03-29T06:45:05.585Z,1006.58
2018-03-29T06:46:05.628Z,1006.57
2018-03-29T06:47:05.680Z,1006.56
2018-03-29T06:48:05.645Z,1006.56
2018-03-29T06:49:05.654Z,1006.52
2018-03-29T06:50:05.672Z,1006.50
2018-03-29T06:51:05.691Z,1006.53
2018-03-29T06:52:05.719Z,1006.54
2018-03-29T06:53:05.734Z,1006.53
2018-03-29T06:54:05.749Z,1006.54
2018-03-29T06:55:05.756Z,1006.59
2018-03-29T06:56:05.777Z,1006.57
2018-03-29T06:57:05.803Z,1006.61
2018-03-29T06:58:05.811Z,1006.55
2018-03-29T06:59:05.869Z,1006.61
2018-03-29T07:00:05.853Z,1006.59
2018-03-29T07:01:05.916Z,1006.61
2018-03-29T07:02:05.889Z,1006.58
2018-03-29T07:03:05.906Z,1006.62
2018-03-29T07:04:05.923Z,1006.60
2018-03-29T07:05:05.984Z,1006.57
2018-03-29T07:06:05.956Z,1006.59
2018-03-29T07:07:05.968Z,1006.60
2018-03-29T07:08:05.988Z,1006.62
2018-03-29T07:09:06.033Z,1006.67
2018-03-29T07:10:06.019Z,1006.67
2018-03-29T07:11:06.052Z,1006.66
2018-03-29T07:12:06.058Z,1006.66
2018-03-29T07:13:06.082Z,1006.66
2018-03-29T07:14:06.093Z,1006.61
2018-03-29T07:15:06.119Z,1006.63
2018-03-29T07:16:06.136Z,1006.65
2018-03-29T07:17:06.143Z,1006.61
2018-03-29T07:18:06.219Z,1006.65
2018-03-29T07:19:06.181Z,1006.66
2018-03-29T07:20:06.200Z,1006.62
2018-03-29T07:21:06.215Z,1006.60
2018-03-29T07:22:06.241Z,1006.64
2018-03-29T07:23:06.258Z,1006.64
2018-03-29T07:24:06.270Z,1006.65
2018-03-29T07:25:06.287Z,1006.65
2018-03-29T07:26:06.305Z,1006.63
2018-03-29T07:27:06.323Z,1006.67
2018-03-29T07:28:06.339Z,1006.62
2018-03-29T07:29:06.414Z,1006.69
2018-03-29T07:30:06.384Z,1006.68
2018-03-29T07:31:06.392Z,1006.70
2018-03-29T07:32:06.413Z,1006.70
2018-03-29T07:33:06.437Z,1006.69
2018-03-29T07:34:06.447Z,1006.64
2018-03-29T07:35:06.514Z,1006.68
2018-03-29T07:36:06.483Z,1006.67
2018-03-29T07:37:06.528Z,1006.72
2018-03-29T07:38:06.527Z,1006.72
2018-03-29T07:39:06.536Z,1006.73
2018-03-29T07:40:06.552Z,1006.74
2018-03-29T07:41:06.625Z,1006.75
2018-03-29T07:42:06.586Z,1006.77
2018-03-29T07:43:06.622Z,1006.73
2018-03-29T07:44:06.633Z,1006.77
2018-03-29T07:45:06.639Z,1006.74
2018-03-29T07:46:06.657Z,1006.75
2018-03-29T07:47:06.745Z,1006.76
2018-03-29T07:48:06.699Z,1006.75
2018-03-29T07:49:06.711Z,1006.74
2018-03-29T07:50:06.728Z,1006.76
2018-03-29T07:51:06.756Z,1006.76
2018-03-29T07:52:06.767Z,1006.76
2018-03-29T07:53:06.783Z,1006.77
2018-03-29T07:54:06.798Z,1006.80
2018-03-29T07:55:06.819Z,1006.81
2018-03-29T07:56:06.865Z,1006.80
2018-03-29T07:57:06.853Z,1006.83
2018-03-29T07:58:06.880Z,1006.79
2018-03-29T07:59:06.908Z,1006.74
2018-03-29T08:00:06.908Z,1006.76
2018-03-29T08:01:06.937Z,1006.79
2018-03-29T08:02:06.952Z,1006.79
2018-03-29T08:03:06.966Z,1006.78
2018-03-29T08:04:06.980Z,1006.80
2018-03-29T08:05:06.999Z,1006.76
2018-03-29T08:06:07.031Z,1006.78
2018-03-29T08:07:07.037Z,1006.78
2018-03-29T08:08:07.050Z,1006.78
2018-03-29T08:09:07.118Z,1006.78
2018-03-29T08:10:07.088Z,1006.80
2018-03-29T08:11:07.161Z,1006.78
2018-03-29T08:12:07.127Z,1006.82
2018-03-29T08:13:07.142Z,1006.81
2018-03-29T08:14:07.171Z,1006.85
2018-03-29T08:15:07.260Z,1006.83
2018-03-29T08:16:07.199Z,1006.84
2018-03-29T08:17:07.266Z,1006.84
2018-03-29T08:18:07.233Z,1006.84
2018-03-29T08:19:07.254Z,1006.86
2018-03-29T08:20:07.271Z,1006.87
2018-03-29T08:21:07.296Z,1006.84
2018-03-29T08:22:07.317Z,1006.94
2018-03-29T08:23:07.377Z,1006.88
2018-03-29T08:24:07.342Z,1006.92
2018-03-29T08:25:07.368Z,1006.92
2018-03-29T08:26:07.391Z,1006.93
2018-03-29T08:27:07.396Z,1006.94
2018-03-29T08:28:07.465Z,1006.95
2018-03-29T08:29:07.485Z,1006.88
2018-03-29T08:30:07.463Z,1006.95
2018-03-29T08:31:07.475Z,1006.92
2018-03-29T08:32:07.501Z,1006.93
2018-03-29T08:33:07.560Z,1006.92
2018-03-29T08:34:07.530Z,1006.89
2018-03-29T08:35:07.610Z,1006.89
2018-03-29T08:36:07.574Z,1006.90
2018-03-29T08:37:07.590Z,1006.94
2018-03-29T08:38:07.607Z,1006.85
2018-03-29T08:39:07.624Z,1006.85
2018-03-29T08:40:07.654Z,1006.94
2018-03-29T08:41:07.666Z,1006.91
2018-03-29T08:42:07.681Z,1006.91
2018-03-29T08:43:07.711Z,1006.89
2018-03-29T08:44:07.721Z,1006.87
2018-03-29T08:45:07.741Z,1006.88
2018-03-29T08:46:07.761Z,1006.91
2018-03-29T08:47:07.798Z,1006.90
2018-03-29T08:48:07.808Z,1006.92
2018-03-29T08:49:07.821Z,1006.91
2018-03-29T08:50:07.845Z,1006.86
2018-03-29T08:51:08.065Z,1006.86
2018-03-29T08:52:08.089Z,1006.84
2018-03-29T08:53:07.962Z,1006.91
2018-03-29T08:54:08.014Z,1006.90
2018-03-29T08:55:07.950Z,1006.91
2018-03-29T08:56:07.968Z,1006.94
2018-03-29T08:57:07.988Z,1006.97
2018-03-29T08:58:08.011Z,1006.96
2018-03-29T08:59:08.029Z,1006.93
2018-03-29T09:00:08.060Z,1006.98
2018-03-29T09:01:08.075Z,1006.98
2018-03-29T09:02:08.100Z,1007.01
2018-03-29T09:03:08.118Z,1006.99
2018-03-29T09:04:08.147Z,1007.00
2018-03-29T09:05:08.154Z,1007.02
2018-03-29T09:06:08.181Z,1007.02
2018-03-29T09:07:08.207Z,1007.04
2018-03-29T09:08:08.220Z,1007.10
2018-03-29T09:09:08.242Z,1006.99
2018-03-29T09:10:08.312Z,1007.02
2018-03-29T09:11:08.295Z,1007.00
2018-03-29T09:12:08.307Z,1006.99
2018-03-29T09:13:08.372Z,1006.99
2018-03-29T09:14:08.350Z,1006.99
2018-03-29T09:15:08.375Z,1006.97
2018-03-29T09:16:08.395Z,1007.02
2018-03-29T09:17:08.415Z,1007.03
2018-03-29T09:18:08.445Z,1007.03
2018-03-29T09:19:08.470Z,1007.03
2018-03-29T09:20:08.480Z,1006.98
2018-03-29T09:21:08.510Z,1006.98
2018-03-29T09:22:08.534Z,1006.99
2018-03-29T09:23:08.548Z,1007.07
2018-03-29T09:24:08.566Z,1007.04
2018-03-29T09:26:08.639Z,1007.04
2018-03-29T09:27:08.635Z,1007.06
2018-03-29T09:28:08.703Z,1007.03
2018-03-29T09:29:08.669Z,1007.06
2018-03-29T09:30:08.687Z,1007.09
2018-03-29T09:31:08.711Z,1007.03
2018-03-29T09:32:08.745Z,1007.04
2018-03-29T09:33:08.759Z,1007.01
2018-03-29T09:34:08.773Z,1007.00
2018-03-29T09:35:08.803Z,1006.98
2018-03-29T09:36:08.820Z,1007.01
2018-03-29T09:37:08.842Z,1007.02
2018-03-29T09:38:08.864Z,1007.06
2018-03-29T09:39:08.883Z,1007.00
2018-03-29T09:40:08.953Z,1007.01
2018-03-29T09:41:08.913Z,1007.06
2018-03-29T09:42:08.932Z,1007.03
2018-03-29T09:43:08.953Z,1007.08
2018-03-29T09:44:08.988Z,1007.05
2018-03-29T09:45:09.066Z,1007.10
2018-03-29T09:46:09.017Z,1007.05
2018-03-29T09:47:09.047Z,1007.08
2018-03-29T09:48:09.058Z,1007.13
2018-03-29T09:49:09.074Z,1007.13
2018-03-29T09:50:09.108Z,1007.07
2018-03-29T09:51:09.155Z,1007.14
2018-03-29T09:52:09.189Z,1007.13
2018-03-29T09:53:09.155Z,1007.12
2018-03-29T09:54:09.176Z,1007.13
2018-03-29T09:55:09.194Z,1007.15
2018-03-29T09:56:09.215Z,1007.13
2018-03-29T09:57:09.243Z,1007.17
2018-03-29T09:58:09.307Z,1007.17
2018-03-29T09:59:09.272Z,1007.18
2018-03-29T10:00:09.298Z,1007.13
2018-03-29T10:01:09.315Z,1007.16
2018-03-29T10:02:09.333Z,1007.15
2018-03-29T10:03:09.368Z,1007.20
2018-03-29T10:04:09.448Z,1007.17
2018-03-29T10:05:09.404Z,1007.16
2018-03-29T10:06:09.413Z,1007.17
2018-03-29T10:07:09.443Z,1007.13
2018-03-29T10:08:09.459Z,1007.13
2018-03-29T10:09:09.481Z,1007.12
2018-03-29T10:10:09.492Z,1007.11
2018-03-29T10:11:09.512Z,1007.09
2018-03-29T10:12:09.547Z,1007.06
2018-03-29T10:13:09.560Z,1007.13
2018-03-29T10:14:09.569Z,1007.10
2018-03-29T10:15:09.586Z,1007.07
2018-03-29T10:16:09.607Z,1007.10
2018-03-29T10:17:09.624Z,1007.04
2018-03-29T10:18:09.655Z,1007.07
2018-03-29T10:19:09.667Z,1007.05
2018-03-29T10:20:09.684Z,1007.04
2018-03-29T10:21:09.702Z,1007.04
2018-03-29T10:22:09.783Z,1007.07
2018-03-29T10:23:09.741Z,1007.03
2018-03-29T10:24:09.812Z,1007.03
2018-03-29T10:25:09.788Z,1006.99
2018-03-29T10:26:09.799Z,1007.03
2018-03-29T10:27:09.819Z,1007.02
2018-03-29T10:28:09.888Z,1007.08
2018-03-29T10:29:09.928Z,1007.01
2018-03-29T10:30:09.899Z,1006.97
2018-03-29T10:31:09.904Z,1006.97
2018-03-29T10:32:09.912Z,1006.96
2018-03-29T10:33:09.932Z,1006.94
2018-03-29T10:34:10.004Z,1006.95
2018-03-29T10:35:09.992Z,1006.92
2018-03-29T10:36:09.984Z,1006.89
2018-03-29T10:37:10.003Z,1006.91
2018-03-29T10:38:10.022Z,1006.96
2018-03-29T10:39:10.043Z,1006.90
2018-03-29T10:40:10.065Z,1006.88
2018-03-29T10:41:10.130Z,1006.89
2018-03-29T10:42:10.098Z,1006.83
2018-03-29T10:43:10.121Z,1006.85
2018-03-29T10:44:10.139Z,1006.86
2018-03-29T10:45:10.165Z,1006.84
2018-03-29T10:46:10.177Z,1006.83
2018-03-29T10:47:10.192Z,1006.80
2018-03-29T10:48:10.270Z,1006.84
2018-03-29T10:49:10.242Z,1006.94
2018-03-29T10:50:10.252Z,1006.95
2018-03-29T10:51:10.373Z,1006.86
2018-03-29T10:52:10.302Z,1006.74
2018-03-29T10:53:10.316Z,1006.75
2018-03-29T10:54:10.355Z,1006.91
2018-03-29T10:55:10.349Z,1006.84
2018-03-29T10:56:10.383Z,1006.77
2018-03-29T10:57:10.396Z,1006.81
2018-03-29T10:58:10.408Z,1006.76
2018-03-29T10:59:10.427Z,1006.71
2018-03-29T11:00:10.449Z,1006.71
2018-03-29T11:01:10.526Z,1006.74
2018-03-29T11:02:10.489Z,1006.67
2018-03-29T11:03:10.520Z,1006.77
2018-03-29T11:04:10.582Z,1006.75
2018-03-29T11:05:10.558Z,1006.73
2018-03-29T11:06:10.578Z,1006.75
2018-03-29T11:07:10.619Z,1006.79
2018-03-29T11:08:10.609Z,1006.63
2018-03-29T11:09:10.629Z,1006.74
2018-03-29T11:10:10.709Z,1006.67
2018-03-29T11:11:10.671Z,1006.55
2018-03-29T11:12:10.691Z,1006.69
2018-03-29T11:13:10.709Z,1006.76
2018-03-29T11:14:10.740Z,1006.71
2018-03-29T11:15:10.754Z,1006.66
2018-03-29T11:16:10.831Z,1006.68
2018-03-29T11:17:10.802Z,1006.64
2018-03-29T11:18:10.820Z,1006.58
2018-03-29T11:19:10.838Z,1006.54
2018-03-29T11:20:10.918Z,1006.56
2018-03-29T11:21:10.881Z,1006.51
2018-03-29T11:22:10.901Z,1006.50
2018-03-29T11:23:10.922Z,1006.60
2018-03-29T11:24:10.952Z,1006.63
2018-03-29T11:25:10.974Z,1006.60
2018-03-29T11:26:11.016Z,1006.59
2018-03-29T11:27:11.008Z,1006.51
2018-03-29T11:28:11.081Z,1006.50
2018-03-29T11:29:11.060Z,1006.42
2018-03-29T11:30:11.072Z,1006.33
2018-03-29T11:31:11.102Z,1006.36
2018-03-29T11:32:11.114Z,1006.35
2018-03-29T11:33:11.146Z,1006.44
2018-03-29T11:34:11.217Z,1006.51
2018-03-29T11:35:11.181Z,1006.51
2018-03-29T11:36:11.204Z,1006.48
2018-03-29T11:37:11.229Z,1006.40
2018-03-29T11:38:11.246Z,1006.34
2018-03-29T11:39:11.289Z,1006.40
2018-03-29T11:40:11.343Z,1006.38
2018-03-29T11:41:11.309Z,1006.36
2018-03-29T11:42:11.340Z,1006.50
2018-03-29T11:43:11.353Z,1006.37
2018-03-29T11:44:11.382Z,1006.28
2018-03-29T11:45:11.422Z,1006.23
2018-03-29T11:46:11.465Z,1006.19
2018-03-29T11:47:11.434Z,1006.26
2018-03-29T11:48:11.464Z,1006.14
2018-03-29T11:49:11.484Z,1006.27
2018-03-29T11:50:11.499Z,1006.30
2018-03-29T11:51:11.543Z,1006.26
2018-03-29T11:52:11.592Z,1006.26
2018-03-29T11:53:11.571Z,1006.26
2018-03-29T11:54:11.580Z,1006.15
2018-03-29T11:55:11.601Z,1006.11
2018-03-29T11:56:11.627Z,1006.08
2018-03-29T11:57:11.651Z,1006.11
2018-03-29T11:58:11.669Z,1006.15
2018-03-29T11:59:11.687Z,1006.20
2018-03-29T12:00:11.709Z,1006.21
2018-03-29T12:01:11.730Z,1006.14
2018-03-29T12:02:11.761Z,1006.11
2018-03-29T12:03:11.771Z,1005.97
2018-03-29T12:04:11.843Z,1006.09
2018-03-29T12:05:11.830Z,1006.08
2018-03-29T12:06:11.841Z,1006.06
2018-03-29T12:07:11.857Z,1006.12
2018-03-29T12:08:11.877Z,1006.07